Time;durP1;ratioP1;P1;durP2;ratioP2;P2;SDS_P1;SDS_P2;PMS_P1;PMS_P2;Temp;Humidity;BMP_temperature;BMP_pressure;BME280_temperature;BME280_humidity;BME280_pressure;Samples;Min_cycle;Max_cycle;Signal;HPM_P1;HPM_P2
2024/01/18 00:00:21;;;;;;;2.45;0.63;;;16.50;28.60;;;;;;7394621;19;19930;-71
2024/01/18 00:02:47;;;;;;;2.97;0.52;;;16.50;28.70;;;;;;7394976;19;19995;-71
2024/01/18 00:05:13;;;;;;;1.17;0.40;;;16.70;28.00;;;;;;7399515;19;19923;-71
2024/01/18 00:07:38;;;;;;;3.97;0.60;;;16.60;28.00;;;;;;7405760;19;20299;-71
2024/01/18 00:10:05;;;;;;;1.35;0.52;;;16.60;28.00;;;;;;7404865;19;19942;-71
2024/01/18 00:12:31;;;;;;;1.33;0.73;;;16.50;28.20;;;;;;7404493;19;19915;-70
2024/01/18 00:14:57;;;;;;;2.47;0.60;;;16.40;28.50;;;;;;7403158;19;19918;-71
2024/01/18 00:17:23;;;;;;;1.13;0.57;;;16.50;28.10;;;;;;7403189;19;19939;-71
2024/01/18 00:19:48;;;;;;;1.75;0.77;;;16.40;28.20;;;;;;7405306;19;19954;-70
2024/01/18 00:22:14;;;;;;;0.80;0.30;;;16.50;27.80;;;;;;7379638;19;20287;-70
2024/01/18 00:24:40;;;;;;;1.80;0.57;;;16.40;28.00;;;;;;7403358;19;19918;-71
2024/01/18 00:27:06;;;;;;;1.77;0.40;;;16.50;27.80;;;;;;7400511;19;19949;-71
2024/01/18 00:29:32;;;;;;;2.47;0.70;;;16.30;28.20;;;;;;7405925;19;20347;-71
2024/01/18 00:31:58;;;;;;;4.38;0.82;;;16.60;27.10;;;;;;7404261;19;20355;-71
2024/01/18 00:34:24;;;;;;;1.30;0.40;;;16.70;26.80;;;;;;7403532;19;20022;-70
2024/01/18 00:36:50;;;;;;;1.23;0.70;;;16.60;26.50;;;;;;7405134;19;19919;-70
2024/01/18 00:39:19;;;;;;;2.80;0.50;;;16.70;26.10;;;;;;7380700;19;19922;-71
2024/01/18 00:41:45;;;;;;;2.08;1.13;;;16.60;26.50;;;;;;7401883;19;19922;-70
2024/01/18 00:44:11;;;;;;;3.00;0.45;;;16.50;26.70;;;;;;7400752;19;20754;-70
2024/01/18 00:46:36;;;;;;;1.52;1.05;;;16.40;26.90;;;;;;7406838;19;19911;-70
2024/01/18 00:49:02;;;;;;;2.60;1.08;;;16.50;26.30;;;;;;7404476;19;19974;-71
2024/01/18 00:51:28;;;;;;;3.85;0.85;;;16.70;25.70;;;;;;7402401;19;19910;-71
2024/01/18 00:53:54;;;;;;;1.90;0.70;;;16.80;25.10;;;;;;7400272;19;19911;-71
2024/01/18 00:56:19;;;;;;;2.60;1.10;;;16.60;25.50;;;;;;7399866;19;21542;-71
2024/01/18 00:58:45;;;;;;;2.72;1.17;;;16.50;25.70;;;;;;7404227;19;19935;-71
2024/01/18 01:01:11;;;;;;;3.20;0.60;;;16.60;25.40;;;;;;7401908;19;19922;-71
2024/01/18 01:03:37;;;;;;;2.20;0.50;;;16.40;25.60;;;;;;7403238;19;19954;-70
2024/01/18 01:06:04;;;;;;;2.38;0.60;;;16.50;25.00;;;;;;7400899;19;19926;-71
2024/01/18 01:08:30;;;;;;;2.97;0.70;;;16.50;25.40;;;;;;7403330;19;20283;-72
2024/01/18 01:10:56;;;;;;;1.77;0.82;;;16.40;25.60;;;;;;7404322;19;19926;-72
2024/01/18 01:13:21;;;;;;;3.25;0.68;;;16.20;25.80;;;;;;7399341;19;20015;-70
2024/01/18 01:15:48;;;;;;;2.17;0.55;;;16.00;26.40;;;;;;7402454;19;19937;-70
2024/01/18 01:18:13;;;;;;;2.78;1.10;;;16.00;26.50;;;;;;7397910;19;19922;-71
2024/01/18 01:20:39;;;;;;;3.25;1.27;;;16.30;25.60;;;;;;7403529;19;20323;-72
2024/01/18 01:23:05;;;;;;;1.25;0.70;;;16.40;25.30;;;;;;7398705;19;19915;-70
2024/01/18 01:25:31;;;;;;;2.72;0.55;;;16.30;25.40;;;;;;7402992;19;19970;-71
2024/01/18 01:27:57;;;;;;;1.17;0.47;;;16.20;25.70;;;;;;7404059;19;20282;-70
2024/01/18 01:30:23;;;;;;;1.08;0.50;;;16.20;25.40;;;;;;7395659;19;19946;-70
2024/01/18 01:32:48;;;;;;;2.65;0.40;;;16.40;24.70;;;;;;7402673;19;20244;-70
2024/01/18 01:35:14;;;;;;;4.18;0.52;;;16.30;25.10;;;;;;7396921;19;19919;-70
2024/01/18 01:37:40;;;;;;;2.20;0.70;;;16.20;25.50;;;;;;7403525;19;19981;-70
2024/01/18 01:40:07;;;;;;;3.28;0.70;;;16.20;25.60;;;;;;7401167;19;19939;-71
2024/01/18 01:42:33;;;;;;;1.58;0.65;;;16.20;25.50;;;;;;7400528;19;19918;-71
2024/01/18 01:44:59;;;;;;;1.40;0.80;;;16.30;25.20;;;;;;7396686;19;19914;-71
2024/01/18 01:47:25;;;;;;;4.05;0.70;;;16.30;25.20;;;;;;7400912;19;19919;-70
2024/01/18 01:49:51;;;;;;;2.58;0.95;;;16.30;25.20;;;;;;7402572;19;19927;-70
2024/01/18 01:52:18;;;;;;;2.45;0.77;;;16.30;25.30;;;;;;7400763;19;19987;-70
2024/01/18 01:54:47;;;;;;;2.30;0.77;;;16.30;25.20;;;;;;7403139;19;19998;-72
2024/01/18 01:57:14;;;;;;;2.08;0.70;;;16.40;25.20;;;;;;7402592;19;19929;-71
2024/01/18 01:59:40;;;;;;;4.03;0.98;;;16.40;25.10;;;;;;7401740;19;19930;-70
2024/01/18 02:02:06;;;;;;;2.72;0.80;;;16.30;25.10;;;;;;7404299;19;19938;-70
2024/01/18 02:04:33;;;;;;;2.70;0.98;;;16.40;25.00;;;;;;7403169;19;19918;-70
2024/01/18 02:06:59;;;;;;;1.83;0.55;;;16.40;25.30;;;;;;7402502;19;20298;-71
2024/01/18 02:09:26;;;;;;;2.20;0.40;;;16.20;25.40;;;;;;7399343;19;19941;-70
2024/01/18 02:11:52;;;;;;;1.73;0.40;;;16.10;25.80;;;;;;7400679;19;19925;-71
2024/01/18 02:14:18;;;;;;;3.13;0.98;;;16.20;26.00;;;;;;7400649;19;19922;-71
2024/01/18 02:16:44;;;;;;;2.80;0.77;;;16.20;26.00;;;;;;7401759;19;19954;-71
2024/01/18 02:19:10;;;;;;;1.92;0.80;;;16.10;26.20;;;;;;7400721;19;19927;-70
2024/01/18 02:21:37;;;;;;;3.25;1.00;;;16.10;26.20;;;;;;7401509;19;19925;-70
2024/01/18 02:24:20;;;;;;;3.80;0.55;;;16.10;26.20;;;;;;7399505;19;19922;-71
2024/01/18 02:26:47;;;;;;;2.78;0.80;;;16.20;26.20;;;;;;7400839;19;19925;-71
2024/01/18 02:29:13;;;;;;;3.25;1.08;;;16.00;26.80;;;;;;7399007;19;20007;-71
2024/01/18 02:31:38;;;;;;;2.92;0.98;;;16.00;26.90;;;;;;7399564;19;19940;-71
2024/01/18 02:34:16;;;;;;;2.25;0.60;;;15.90;27.20;;;;;;7400348;19;19915;-69
2024/01/18 02:36:43;;;;;;;2.53;0.82;;;15.90;27.30;;;;;;7400192;19;19983;-71
2024/01/18 02:39:08;;;;;;;1.95;0.75;;;15.80;27.70;;;;;;7398384;19;19934;-70
2024/01/18 02:41:35;;;;;;;1.80;0.52;;;15.90;27.50;;;;;;7400941;19;19914;-71
2024/01/18 02:44:01;;;;;;;2.47;0.77;;;15.80;27.90;;;;;;7403412;19;19926;-70
2024/01/18 02:46:31;;;;;;;2.80;0.93;;;15.90;27.70;;;;;;7396949;19;19937;-71
2024/01/18 02:48:57;;;;;;;2.83;0.80;;;15.90;27.70;;;;;;7400559;19;19914;-71
2024/01/18 02:51:22;;;;;;;3.17;0.75;;;15.80;28.10;;;;;;7400435;19;19966;-70
2024/01/18 02:53:48;;;;;;;2.25;0.50;;;15.70;28.30;;;;;;7399803;19;19960;-71
2024/01/18 02:56:14;;;;;;;2.65;0.70;;;15.80;28.20;;;;;;7399814;19;19918;-71
2024/01/18 02:58:40;;;;;;;4.32;0.98;;;15.90;28.30;;;;;;7401973;19;19926;-70
2024/01/18 03:01:06;;;;;;;2.05;0.55;;;15.80;28.40;;;;;;7399568;19;20321;-70
2024/01/18 03:03:34;;;;;;;2.78;1.13;;;15.90;28.20;;;;;;7402488;19;19943;-70
2024/01/18 03:06:00;;;;;;;1.73;0.65;;;15.90;28.10;;;;;;7400251;19;19942;-70
2024/01/18 03:08:26;;;;;;;1.88;0.82;;;15.90;28.00;;;;;;7397761;19;19919;-73
2024/01/18 03:10:52;;;;;;;3.40;0.90;;;15.80;28.30;;;;;;7402069;19;19921;-70
2024/01/18 03:13:17;;;;;;;1.88;0.60;;;15.70;28.60;;;;;;7396665;19;19923;-70
2024/01/18 03:15:43;;;;;;;2.30;0.88;;;15.70;28.70;;;;;;7399065;19;19942;-71
2024/01/18 03:18:09;;;;;;;2.10;0.82;;;15.70;28.90;;;;;;7397950;19;20002;-71
2024/01/18 03:20:35;;;;;;;3.53;0.52;;;15.60;28.90;;;;;;7398442;19;19930;-71
2024/01/18 03:23:01;;;;;;;3.72;0.77;;;15.50;29.40;;;;;;7400211;19;19933;-71
2024/01/18 03:25:27;;;;;;;2.45;0.75;;;15.40;29.90;;;;;;7400329;19;20331;-70
2024/01/18 03:27:53;;;;;;;3.30;0.80;;;15.30;30.00;;;;;;7398619;19;19935;-70
2024/01/18 03:30:20;;;;;;;1.80;0.65;;;15.30;30.40;;;;;;7396381;19;19935;-71
2024/01/18 03:32:46;;;;;;;2.70;0.60;;;15.40;30.20;;;;;;7401510;19;19911;-71
2024/01/18 03:35:12;;;;;;;1.90;0.60;;;15.50;30.00;;;;;;7399384;19;19929;-71
2024/01/18 03:37:38;;;;;;;2.58;0.88;;;15.50;29.80;;;;;;7400417;19;19915;-71
2024/01/18 03:40:08;;;;;;;2.53;0.98;;;15.40;30.00;;;;;;7392978;19;19931;-70
2024/01/18 03:42:34;;;;;;;2.50;0.63;;;15.30;30.20;;;;;;7398486;19;20318;-71
2024/01/18 03:45:01;;;;;;;2.63;0.75;;;15.30;30.80;;;;;;7398850;19;19919;-70
2024/01/18 03:47:26;;;;;;;1.40;0.38;;;15.30;30.90;;;;;;7397894;19;19922;-70
2024/01/18 03:49:52;;;;;;;2.25;0.50;;;15.20;31.30;;;;;;7402305;19;19911;-70
2024/01/18 03:52:18;;;;;;;2.20;0.93;;;15.10;31.70;;;;;;7395698;19;19922;-72
2024/01/18 03:54:44;;;;;;;2.28;0.93;;;15.00;32.00;;;;;;7397731;19;19914;-70
2024/01/18 03:57:10;;;;;;;2.03;0.55;;;15.00;32.30;;;;;;7391085;19;19930;-70
2024/01/18 03:59:36;;;;;;;3.38;0.55;;;15.00;32.50;;;;;;7397653;19;19914;-71
2024/01/18 04:02:01;;;;;;;2.30;0.60;;;15.00;32.70;;;;;;7399007;19;20311;-71
2024/01/18 04:04:27;;;;;;;2.35;0.55;;;14.90;32.70;;;;;;7397346;19;19930;-71
2024/01/18 04:06:53;;;;;;;2.53;0.65;;;14.80;33.50;;;;;;7394695;19;19915;-70
2024/01/18 04:09:18;;;;;;;4.45;1.05;;;14.70;34.10;;;;;;7395665;19;19943;-70
2024/01/18 04:11:45;;;;;;;2.50;0.70;;;14.70;34.50;;;;;;7396375;19;19918;-71
2024/01/18 04:14:10;;;;;;;2.30;0.70;;;14.50;35.10;;;;;;7396730;19;19939;-71
2024/01/18 04:16:37;;;;;;;2.88;1.08;;;14.50;35.80;;;;;;7393291;19;19922;-70
2024/01/18 04:19:04;;;;;;;;;;;14.40;36.20;;;;;;7396091;19;19918;-71
2024/01/18 04:21:30;;;;;;;2.33;0.50;;;14.40;36.80;;;;;;7395511;19;19917;-71
2024/01/18 04:23:56;;;;;;;3.45;0.80;;;14.30;37.00;;;;;;7397170;19;20252;-71
2024/01/18 04:26:24;;;;;;;2.50;1.00;;;14.20;37.90;;;;;;7397174;19;20015;-72
2024/01/18 04:28:51;;;;;;;3.72;0.95;;;14.00;38.50;;;;;;7395606;19;19941;-71
2024/01/18 04:31:16;;;;;;;2.95;0.82;;;13.90;39.70;;;;;;7393556;19;20256;-71
2024/01/18 04:33:42;;;;;;;3.08;0.60;;;13.80;40.10;;;;;;7397611;19;19918;-70
2024/01/18 04:36:08;;;;;;;3.28;0.90;;;13.80;40.90;;;;;;7394776;19;19923;-71
2024/01/18 04:38:34;;;;;;;4.00;0.90;;;13.90;40.80;;;;;;7397596;19;19914;-71
2024/01/18 04:41:00;;;;;;;3.20;1.08;;;13.90;40.80;;;;;;7397421;19;20360;-70
2024/01/18 04:43:25;;;;;;;1.75;0.60;;;13.80;41.00;;;;;;7394981;19;19934;-70
2024/01/18 04:45:51;;;;;;;2.88;0.85;;;13.80;41.30;;;;;;7397233;19;19986;-70
2024/01/18 04:48:17;;;;;;;3.92;0.90;;;13.70;42.20;;;;;;7396174;19;19928;-70
2024/01/18 04:50:43;;;;;;;3.83;1.80;;;13.60;42.70;;;;;;7397396;19;20539;-71
2024/01/18 04:53:09;;;;;;;4.93;1.00;;;13.50;43.50;;;;;;7401933;19;19926;-71
2024/01/18 04:55:34;;;;;;;3.22;0.95;;;13.40;44.40;;;;;;7400779;19;19919;-71
2024/01/18 04:58:00;;;;;;;3.28;0.90;;;13.50;44.40;;;;;;7401195;19;19933;-71
2024/01/18 05:00:26;;;;;;;3.67;1.17;;;13.40;44.50;;;;;;7399977;19;19918;-72
2024/01/18 05:02:51;;;;;;;4.53;0.80;;;13.30;45.40;;;;;;7403539;19;19918;-69
2024/01/18 05:05:17;;;;;;;4.30;1.00;;;13.50;44.90;;;;;;7401827;19;19919;-70
2024/01/18 05:07:44;;;;;;;2.40;0.80;;;13.60;43.90;;;;;;7403037;19;19914;-71
2024/01/18 05:10:11;;;;;;;3.75;1.15;;;13.60;43.70;;;;;;7402381;19;19925;-70
2024/01/18 05:12:37;;;;;;;2.70;0.60;;;13.60;43.70;;;;;;7403720;19;19921;-71
2024/01/18 05:15:03;;;;;;;3.05;0.80;;;13.70;43.00;;;;;;7378333;19;19998;-71
2024/01/18 05:17:35;;;;;;;4.43;1.10;;;13.80;42.40;;;;;;7401371;19;19914;-70
2024/01/18 05:20:06;;;;;;;5.50;1.10;;;13.80;42.40;;;;;;7402740;19;19926;-70
2024/01/18 05:22:32;;;;;;;3.25;0.95;;;13.90;41.30;;;;;;7399524;19;19925;-71
2024/01/18 05:25:02;;;;;;;5.05;1.40;;;13.90;40.50;;;;;;7401657;19;19939;-70
2024/01/18 05:27:29;;;;;;;4.18;0.55;;;14.20;37.80;;;;;;7402697;19;20349;-71
2024/01/18 05:29:59;;;;;;;1.83;1.13;;;14.20;38.00;;;;;;7401857;19;19935;-71
2024/01/18 05:32:25;;;;;;;4.18;1.17;;;14.50;36.20;;;;;;7403883;19;19925;-71
2024/01/18 05:34:51;;;;;;;3.72;0.85;;;14.50;35.70;;;;;;7401967;19;19914;-71
2024/01/18 05:37:22;;;;;;;2.72;0.90;;;14.40;35.70;;;;;;7400336;19;19915;-72
2024/01/18 05:39:50;;;;;;;2.30;0.70;;;14.40;36.50;;;;;;7403304;19;20313;-72
2024/01/18 05:42:22;;;;;;;2.72;0.70;;;14.30;36.00;;;;;;7399604;19;20250;-70
2024/01/18 05:44:49;;;;;;;3.58;0.80;;;14.50;35.00;;;;;;7401824;19;20579;-71
2024/01/18 05:47:15;;;;;;;2.33;0.93;;;14.40;35.10;;;;;;7379289;19;19919;-71
2024/01/18 05:49:41;;;;;;;6.00;1.35;;;14.40;35.10;;;;;;7402277;19;19930;-71
2024/01/18 05:52:07;;;;;;;3.25;1.00;;;14.40;34.70;;;;;;7399495;19;20024;-71
2024/01/18 05:54:33;;;;;;;2.80;0.60;;;14.60;34.00;;;;;;7402934;19;19926;-71
2024/01/18 05:57:04;;;;;;;2.47;0.90;;;14.70;33.50;;;;;;7399655;19;19922;-70
2024/01/18 05:59:30;;;;;;;3.45;0.85;;;14.80;32.60;;;;;;7403359;19;20346;-71
2024/01/18 06:01:56;;;;;;;2.88;0.70;;;14.80;32.70;;;;;;7402627;19;19915;-71
2024/01/18 06:04:24;;;;;;;4.40;1.38;;;14.90;31.70;;;;;;7400082;19;19946;-70
2024/01/18 06:06:50;;;;;;;4.03;0.73;;;14.90;31.30;;;;;;7401854;19;19922;-71
2024/01/18 06:09:18;;;;;;;4.60;1.10;;;15.00;30.70;;;;;;7398150;19;20453;-70
2024/01/18 06:11:45;;;;;;;2.40;0.85;;;14.90;31.10;;;;;;7402221;19;19926;-70
2024/01/18 06:14:13;;;;;;;3.28;0.80;;;15.00;30.80;;;;;;7401217;19;19974;-70
2024/01/18 06:16:39;;;;;;;4.70;1.35;;;14.90;30.90;;;;;;7398454;19;19915;-70
2024/01/18 06:19:05;;;;;;;2.35;0.80;;;15.10;30.30;;;;;;7397969;19;19923;-71
2024/01/18 06:21:31;;;;;;;3.72;1.05;;;15.20;30.00;;;;;;7400017;19;20353;-71
2024/01/18 06:23:57;;;;;;;2.20;0.98;;;15.20;29.60;;;;;;7401998;19;19940;-71
2024/01/18 06:26:23;;;;;;;2.63;1.00;;;15.10;29.80;;;;;;7401590;19;19931;-71
2024/01/18 06:28:49;;;;;;;4.15;1.08;;;15.20;29.10;;;;;;7399735;19;19918;-71
2024/01/18 06:31:15;;;;;;;3.10;1.17;;;15.30;28.80;;;;;;7401357;19;19926;-70
2024/01/18 06:33:41;;;;;;;4.47;1.00;;;15.20;28.70;;;;;;7402044;19;19907;-70
2024/01/18 06:36:12;;;;;;;5.72;1.23;;;15.20;28.50;;;;;;7397581;19;19948;-71
2024/01/18 06:38:37;;;;;;;6.13;0.98;;;15.20;28.70;;;;;;7403150;19;19990;-71
2024/01/18 06:41:03;;;;;;;5.72;1.25;;;15.20;28.90;;;;;;7401896;19;19919;-72
2024/01/18 06:43:29;;;;;;;4.45;0.85;;;15.00;29.20;;;;;;7401223;19;20627;-70
2024/01/18 06:45:56;;;;;;;4.65;1.30;;;14.90;29.60;;;;;;7401512;19;19917;-72
2024/01/18 06:48:22;;;;;;;4.72;0.60;;;14.80;30.00;;;;;;7397575;19;26021;-70
2024/01/18 06:50:48;;;;;;;3.97;1.02;;;14.80;30.50;;;;;;7402227;19;19922;-70
2024/01/18 06:53:14;;;;;;;2.78;1.00;;;14.80;30.50;;;;;;7399559;19;20352;-70
2024/01/18 06:55:40;;;;;;;4.75;1.02;;;14.60;30.80;;;;;;7398514;19;19925;-71
2024/01/18 06:58:06;;;;;;;3.58;1.15;;;14.70;31.10;;;;;;7397435;19;19982;-70
2024/01/18 07:00:32;;;;;;;5.00;0.95;;;14.70;31.00;;;;;;7398154;19;19922;-71
2024/01/18 07:02:58;;;;;;;6.95;1.45;;;14.70;30.80;;;;;;7401664;19;19918;-70
2024/01/18 07:05:24;;;;;;;5.10;1.08;;;14.70;31.00;;;;;;7399397;19;19918;-70
2024/01/18 07:07:50;;;;;;;3.53;1.48;;;14.80;30.30;;;;;;7399717;19;19922;-70
2024/01/18 07:10:17;;;;;;;4.30;1.02;;;14.60;30.70;;;;;;7393620;19;19941;-71
2024/01/18 07:12:44;;;;;;;4.35;1.45;;;14.50;31.20;;;;;;7384686;19;19914;-71
2024/01/18 07:15:10;;;;;;;3.40;0.70;;;14.60;31.10;;;;;;7381698;19;19950;-72
2024/01/18 07:17:36;;;;;;;3.35;1.00;;;14.60;30.90;;;;;;7397981;19;19936;-71
2024/01/18 07:20:03;;;;;;;4.50;1.25;;;14.60;31.00;;;;;;7397636;19;19978;-71
2024/01/18 07:22:29;;;;;;;;;;;14.70;30.30;;;;;;7400573;19;20370;-72
2024/01/18 07:24:55;;;;;;;4.85;1.08;;;14.80;30.10;;;;;;7399035;19;19922;-72
2024/01/18 07:27:20;;;;;;;2.83;0.77;;;14.90;30.00;;;;;;7397104;19;19929;-70
2024/01/18 07:29:49;;;;;;;4.43;1.20;;;14.90;30.00;;;;;;7396588;19;20335;-71
2024/01/18 07:32:18;;;;;;;7.03;1.02;;;14.90;29.70;;;;;;7397335;19;19919;-71
2024/01/18 07:34:44;;;;;;;6.18;1.52;;;14.90;29.80;;;;;;7396115;19;20560;-72
2024/01/18 07:37:14;;;;;;;7.88;1.40;;;15.10;29.00;;;;;;7397920;19;19938;-72
2024/01/18 07:39:41;;;;;;;5.93;1.10;;;15.10;29.00;;;;;;7396142;19;19914;-72
2024/01/18 07:42:07;;;;;;;4.30;1.45;;;15.00;29.20;;;;;;7397896;19;19941;-72
2024/01/18 07:44:35;;;;;;;4.57;1.10;;;15.20;29.20;;;;;;7396704;19;19918;-71
2024/01/18 07:47:01;;;;;;;6.20;1.30;;;15.00;29.10;;;;;;7397308;19;19926;-71
2024/01/18 07:49:27;;;;;;;6.68;0.95;;;15.10;29.10;;;;;;7396805;19;20267;-71
2024/01/18 07:51:52;;;;;;;4.78;1.05;;;15.20;28.50;;;;;;7399177;19;19918;-70
2024/01/18 07:54:18;;;;;;;4.88;0.90;;;15.20;28.80;;;;;;7395067;19;20746;-70
2024/01/18 07:56:44;;;;;;;6.35;1.50;;;15.20;28.60;;;;;;7396164;19;19922;-71
2024/01/18 07:59:09;;;;;;;4.60;0.80;;;15.20;28.60;;;;;;7396199;19;19929;-71
2024/01/18 08:01:35;;;;;;;5.63;1.00;;;15.30;28.50;;;;;;7393992;19;20261;-71
2024/01/18 08:04:01;;;;;;;7.47;1.90;;;15.30;28.30;;;;;;7398571;19;19993;-72
2024/01/18 08:06:27;;;;;;;5.18;1.60;;;15.30;28.40;;;;;;7395850;19;19922;-72
2024/01/18 08:08:55;;;;;;;6.57;1.52;;;15.40;27.80;;;;;;7388303;19;19918;-72
2024/01/18 08:11:20;;;;;;;5.38;1.05;;;15.50;27.40;;;;;;7392620;19;19910;-71
2024/01/18 08:13:46;;;;;;;5.20;1.25;;;15.60;27.30;;;;;;7396804;19;19953;-71
2024/01/18 08:16:12;;;;;;;4.15;1.13;;;15.60;27.30;;;;;;7392379;19;19925;-72
2024/01/18 08:18:38;;;;;;;3.95;1.25;;;15.60;27.10;;;;;;7396501;19;20545;-72
2024/01/18 08:21:04;;;;;;;7.75;1.85;;;15.70;26.80;;;;;;7390886;19;19923;-72
2024/01/18 08:23:32;;;;;;;4.97;1.23;;;15.80;26.70;;;;;;7395109;19;19939;-72
2024/01/18 08:25:57;;;;;;;5.15;1.60;;;15.80;26.20;;;;;;7398307;19;19945;-72
2024/01/18 08:28:23;;;;;;;4.03;1.80;;;15.90;26.30;;;;;;7400336;19;19915;-71
2024/01/18 08:30:49;;;;;;;5.13;1.88;;;16.80;25.10;;;;;;7401703;19;19919;-73
2024/01/18 08:33:15;;;;;;;7.45;1.65;;;17.90;21.30;;;;;;7400766;19;19936;-71
2024/01/18 08:35:41;;;;;;;5.00;1.63;;;18.40;19.50;;;;;;7403402;19;20351;-72
2024/01/18 08:38:07;;;;;;;5.60;1.15;;;18.50;18.70;;;;;;7398479;19;19933;-71
2024/01/18 08:40:34;;;;;;;5.32;1.52;;;18.40;18.60;;;;;;7403204;19;19918;-72
2024/01/18 08:43:00;;;;;;;3.88;0.90;;;19.30;17.30;;;;;;7405139;19;19971;-73
2024/01/18 08:45:33;;;;;;;3.80;1.58;;;18.80;16.60;;;;;;7400935;19;19970;-74
2024/01/18 08:47:59;;;;;;;5.95;2.15;;;19.40;16.40;;;;;;7401355;19;20022;-71
2024/01/18 08:50:25;;;;;;;4.22;1.85;;;19.90;15.30;;;;;;7401022;19;19915;-71
2024/01/18 08:52:53;;;;;;;4.65;2.05;;;19.70;14.20;;;;;;7401594;19;19950;-72
2024/01/18 08:55:19;;;;;;;6.18;2.25;;;19.90;14.50;;;;;;7400804;19;19915;-71
2024/01/18 08:57:46;;;;;;;5.65;1.80;;;20.00;14.30;;;;;;7401675;19;19942;-72
2024/01/18 09:00:13;;;;;;;3.92;2.00;;;19.90;14.80;;;;;;7399640;19;19990;-72
2024/01/18 09:02:42;;;;;;;5.13;1.80;;;20.20;13.90;;;;;;7402291;19;19978;-73
2024/01/18 09:05:08;;;;;;;8.13;1.80;;;20.00;14.10;;;;;;7401733;19;19918;-73
2024/01/18 09:07:34;;;;;;;6.72;2.00;;;19.80;14.80;;;;;;7402308;19;19945;-72
2024/01/18 09:10:00;;;;;;;5.65;2.35;;;18.90;15.70;;;;;;7403201;19;19919;-73
2024/01/18 09:12:26;;;;;;;4.28;1.92;;;18.90;16.30;;;;;;7402424;19;20541;-73
2024/01/18 09:14:54;;;;;;;3.83;1.27;;;18.60;17.30;;;;;;7405674;19;19939;-73
2024/01/18 09:17:20;;;;;;;7.47;1.65;;;18.10;18.30;;;;;;7403264;19;19936;-71
2024/01/18 09:19:50;;;;;;;4.75;1.30;;;17.90;19.20;;;;;;7404400;19;19911;-72
2024/01/18 09:22:16;;;;;;;4.78;1.38;;;18.00;19.10;;;;;;7400444;19;19919;-72
2024/01/18 09:24:42;;;;;;;3.97;1.58;;;17.80;19.60;;;;;;7401071;19;19925;-73
2024/01/18 09:27:09;;;;;;;4.55;1.48;;;17.80;19.70;;;;;;7405463;19;20275;-71
2024/01/18 09:29:36;;;;;;;2.30;0.82;;;17.70;19.50;;;;;;7402287;19;20307;-71
2024/01/18 09:32:06;;;;;;;4.15;1.55;;;17.70;20.00;;;;;;7403895;19;20205;-72
2024/01/18 09:34:32;;;;;;;5.30;1.33;;;17.90;19.90;;;;;;7400692;19;20566;-71
2024/01/18 09:36:58;;;;;;;;;;;18.00;19.80;;;;;;7406898;19;19914;-72
2024/01/18 09:39:24;;;;;;;3.08;1.17;;;18.30;19.30;;;;;;7400032;19;19915;-70
2024/01/18 09:41:52;;;;;;;4.35;2.05;;;18.30;18.80;;;;;;7402802;19;19918;-71
2024/01/18 09:44:26;;;;;;;4.40;1.60;;;18.30;18.90;;;;;;7399270;19;20345;-71
2024/01/18 09:46:55;;;;;;;4.97;1.05;;;18.60;18.20;;;;;;7399500;19;19936;-72
2024/01/18 09:49:21;;;;;;;2.65;1.70;;;19.30;17.20;;;;;;7399052;19;19925;-71
2024/01/18 09:51:47;;;;;;;2.88;1.33;;;19.30;16.60;;;;;;7400463;19;19922;-71
2024/01/18 09:54:13;;;;;;;5.35;1.67;;;19.50;16.40;;;;;;7398468;19;20323;-72
2024/01/18 09:56:44;;;;;;;4.65;1.60;;;19.80;15.70;;;;;;7401321;19;20447;-72
2024/01/18 09:59:14;;;;;;;3.58;1.65;;;19.50;15.50;;;;;;7401467;19;19918;-72
2024/01/18 10:01:40;;;;;;;3.45;1.65;;;19.40;16.10;;;;;;7402002;19;19929;-71
2024/01/18 10:04:10;;;;;;;3.83;1.85;;;19.70;15.70;;;;;;7398287;19;19912;-71
2024/01/18 10:06:38;;;;;;;4.00;1.45;;;19.70;15.70;;;;;;7402120;19;19907;-72
2024/01/18 10:09:05;;;;;;;7.30;2.10;;;19.30;15.70;;;;;;7399660;19;19910;-71
2024/01/18 10:11:31;;;;;;;2.90;1.92;;;19.60;15.60;;;;;;7400004;19;20061;-72
2024/01/18 10:13:59;;;;;;;2.70;1.20;;;19.30;15.70;;;;;;7399503;19;20283;-71
2024/01/18 10:16:35;;;;;;;4.07;1.13;;;19.40;15.50;;;;;;7395785;19;20274;-72
2024/01/18 10:19:20;;;;;;;6.75;1.70;;;19.40;16.10;;;;;;7402027;19;20935;-71
2024/01/18 10:21:47;;;;;;;3.72;1.58;;;19.90;15.30;;;;;;7398998;19;19930;-71
2024/01/18 10:24:14;;;;;;;4.60;1.63;;;20.10;14.70;;;;;;7400991;19;19919;-71
2024/01/18 10:26:41;;;;;;;8.13;1.90;;;19.70;14.90;;;;;;7400974;19;19956;-71
2024/01/18 10:29:09;;;;;;;;;;;19.80;14.90;;;;;;7399245;19;19925;-71
2024/01/18 10:31:39;;;;;;;4.30;1.55;;;19.90;14.40;;;;;;7401817;19;19922;-72
2024/01/18 10:34:06;;;;;;;4.93;1.70;;;19.80;14.60;;;;;;7397273;19;19958;-71
2024/01/18 10:36:33;;;;;;;3.40;1.67;;;19.70;14.80;;;;;;7399228;19;19919;-71
2024/01/18 10:38:58;;;;;;;4.82;1.60;;;20.40;13.40;;;;;;7401005;19;19918;-73
2024/01/18 10:41:24;;;;;;;4.43;1.88;;;20.00;13.90;;;;;;7396939;19;19910;-71
2024/01/18 10:43:50;;;;;;;3.90;1.60;;;20.70;13.30;;;;;;7398719;19;19910;-71
2024/01/18 10:46:17;;;;;;;3.25;1.88;;;20.10;13.10;;;;;;7396630;19;19926;-72
2024/01/18 10:48:49;;;;;;;3.80;1.77;;;19.80;13.50;;;;;;7402384;19;19926;-71
2024/01/18 10:51:15;;;;;;;3.78;2.15;;;20.20;13.40;;;;;;7398731;19;19918;-71
2024/01/18 10:53:43;;;;;;;3.47;1.75;;;20.60;13.00;;;;;;7398962;19;19919;-71
2024/01/18 10:56:09;;;;;;;3.60;1.58;;;20.00;13.10;;;;;;7397856;19;19982;-72
2024/01/18 10:58:35;;;;;;;3.90;1.58;;;20.40;13.10;;;;;;7398785;19;19939;-72
2024/01/18 11:01:01;;;;;;;4.30;1.35;;;20.40;12.10;;;;;;7400764;19;20610;-71
2024/01/18 11:03:28;;;;;;;6.28;1.65;;;21.00;11.60;;;;;;7403530;19;19946;-72
2024/01/18 11:05:54;;;;;;;2.83;1.52;;;20.50;11.80;;;;;;7400469;19;20601;-73
2024/01/18 11:08:21;;;;;;;3.53;2.08;;;21.10;11.20;;;;;;7400929;19;19942;-72
2024/01/18 11:10:47;;;;;;;4.35;1.80;;;20.90;10.70;;;;;;7402711;19;19923;-71
2024/01/18 11:13:17;;;;;;;4.97;1.70;;;21.10;11.40;;;;;;7401141;19;19953;-72
2024/01/18 11:15:44;;;;;;;3.53;1.50;;;21.40;10.20;;;;;;7400808;19;19926;-70
2024/01/18 11:18:14;;;;;;;3.20;1.33;;;21.30;9.20;;;;;;7401682;19;20712;-72
2024/01/18 11:21:08;;;;;;;3.40;1.55;;;21.20;9.50;;;;;;7401654;19;19939;-72
2024/01/18 11:23:44;;;;;;;3.92;1.75;;;21.60;9.10;;;;;;7398864;19;19926;-73
2024/01/18 11:26:23;;;;;;;6.00;1.58;;;21.60;9.90;;;;;;7397238;19;19994;-71
2024/01/18 11:28:49;;;;;;;2.70;0.77;;;20.30;11.00;;;;;;7401063;19;20301;-72
2024/01/18 11:31:15;;;;;;;3.58;1.55;;;20.40;10.90;;;;;;7400304;19;19938;-72
2024/01/18 11:33:41;;;;;;;7.20;2.05;;;21.20;10.50;;;;;;7402218;19;19994;-71
2024/01/18 11:36:13;;;;;;;3.33;1.25;;;20.60;9.90;;;;;;7400173;19;19925;-72
2024/01/18 11:38:45;;;;;;;3.42;1.40;;;20.20;10.70;;;;;;7398700;19;19910;-72
2024/01/18 11:41:26;;;;;;;3.53;2.13;;;20.20;11.30;;;;;;7398464;19;19919;-71
2024/01/18 11:44:09;;;;;;;6.25;1.92;;;20.90;10.40;;;;;;7399245;19;19929;-71
2024/01/18 11:46:38;;;;;;;4.65;1.20;;;20.80;10.50;;;;;;7397037;19;19915;-72
2024/01/18 11:49:05;;;;;;;3.70;1.13;;;20.30;10.60;;;;;;7396880;19;19922;-71
2024/01/18 11:51:31;;;;;;;;;;;19.80;11.40;;;;;;7401388;19;19921;-72
2024/01/18 11:53:59;;;;;;;3.33;1.20;;;20.00;11.70;;;;;;7400148;19;19915;-72
2024/01/18 11:56:28;;;;;;;2.92;1.23;;;20.30;11.30;;;;;;7373872;19;19922;-71
2024/01/18 11:58:58;;;;;;;4.30;1.33;;;20.70;10.70;;;;;;7397577;19;19926;-73
2024/01/18 12:01:24;;;;;;;3.08;1.10;;;20.60;10.80;;;;;;7398202;19;19937;-72
2024/01/18 12:03:49;;;;;;;2.20;0.63;;;20.40;10.50;;;;;;7406803;19;20655;-71
2024/01/18 12:06:17;;;;;;;2.20;1.00;;;20.80;9.90;;;;;;7401025;19;19938;-71
2024/01/18 12:08:44;;;;;;;3.75;1.60;;;19.90;11.40;;;;;;7405886;19;20010;-72
2024/01/18 12:11:10;;;;;;;2.63;1.13;;;20.10;11.10;;;;;;7400886;19;20486;-71
2024/01/18 12:13:37;;;;;;;3.65;1.52;;;20.90;9.30;;;;;;7403745;19;19914;-71
2024/01/18 12:16:04;;;;;;;3.00;1.23;;;20.80;9.60;;;;;;7400090;19;19918;-71
2024/01/18 12:18:40;;;;;;;2.75;1.45;;;20.90;9.20;;;;;;7403099;19;19922;-71
2024/01/18 12:21:06;;;;;;;4.65;1.73;;;21.70;7.30;;;;;;7401120;19;19930;-72
2024/01/18 12:23:32;;;;;;;5.07;1.77;;;22.10;6.00;;;;;;7401762;19;20339;-70
2024/01/18 12:25:58;;;;;;;4.65;2.05;;;21.60;6.90;;;;;;7404874;19;19910;-71
2024/01/18 12:28:25;;;;;;;4.72;1.40;;;22.20;5.60;;;;;;7400107;19;19918;-70
2024/01/18 12:30:51;;;;;;;3.88;1.50;;;21.10;7.40;;;;;;7404038;19;19922;-73
2024/01/18 12:33:17;;;;;;;3.45;1.00;;;20.50;7.70;;;;;;7401623;19;20306;-74
2024/01/18 12:35:46;;;;;;;3.45;1.17;;;20.80;7.40;;;;;;7401183;19;19918;-72
2024/01/18 12:38:11;;;;;;;4.35;0.93;;;20.20;8.20;;;;;;7378606;19;19922;-72
2024/01/18 12:40:37;;;;;;;3.03;1.38;;;20.30;8.00;;;;;;7404061;19;19946;-72
2024/01/18 12:43:03;;;;;;;5.60;1.77;;;20.80;7.90;;;;;;7399868;19;19959;-72
2024/01/18 12:45:31;;;;;;;2.25;1.02;;;20.10;7.90;;;;;;7402657;19;19915;-71